Time;durP1;ratioP1;P1;durP2;ratioP2;P2;SDS_P1;SDS_P2;PMS_P1;PMS_P2;Temp;Humidity;BMP_temperature;BMP_pressure;BME280_temperature;BME280_humidity;BME280_pressure;Samples;Min_cycle;Max_cycle;Signal;HPM_P1;HPM_P2
2024/03/19 00:02:20;;;;;;;5.32;3.40;;;;;;;;;;5091643;28;20036;-54
2024/03/19 00:04:46;;;;;;;3.63;2.60;;;;;;;;;;5089830;28;20032;-53
2024/03/19 00:07:12;;;;;;;5.78;2.45;;;;;;;;;;5093247;28;20020;-56
2024/03/19 00:09:38;;;;;;;6.32;2.97;;;;;;;;;;5093468;28;20027;-56
2024/03/19 00:12:04;;;;;;;3.58;2.60;;;;;;;;;;5093545;28;20129;-52
2024/03/19 00:14:30;;;;;;;6.00;2.72;;;;;;;;;;5093155;28;20387;-56
2024/03/19 00:16:56;;;;;;;5.32;2.72;;;;;;;;;;5091856;28;20039;-54
2024/03/19 00:19:24;;;;;;;6.65;3.60;;;;;;;;;;5082567;28;20028;-54
2024/03/19 00:21:50;;;;;;;4.30;2.78;;;;;;;;;;5093266;28;20151;-54
2024/03/19 00:24:18;;;;;;;5.20;3.03;;;;;;;;;;5092742;28;20039;-53
2024/03/19 00:26:44;;;;;;;6.20;2.60;;;;;;;;;;5087899;28;20111;-52
2024/03/19 00:29:11;;;;;;;6.25;3.00;;;;;;;;;;5092152;28;20024;-56
2024/03/19 00:31:37;;;;;;;7.32;2.95;;;;;;;;;;5091434;28;20162;-54
2024/03/19 00:34:03;;;;;;;4.28;2.60;;;;;;;;;;5092619;28;20031;-56
2024/03/19 00:36:29;;;;;;;5.65;3.10;;;;;;;;;;5093208;28;20135;-56
2024/03/19 00:38:55;;;;;;;7.15;3.33;;;;;;;;;;5093183;28;20032;-55
2024/03/19 00:41:21;;;;;;;4.63;2.58;;;;;;;;;;5112935;28;20027;-55
2024/03/19 00:43:47;;;;;;;18.00;6.82;;;;;;;;;;5084366;28;20377;-56
2024/03/19 00:46:13;;;;;;;5.78;3.20;;;;;;;;;;5076409;28;20044;-54
2024/03/19 00:48:39;;;;;;;5.72;3.15;;;;;;;;;;5092377;28;20054;-56
2024/03/19 00:51:05;;;;;;;37.90;15.63;;;;;;;;;;5085297;28;20039;-57
2024/03/19 00:53:32;;;;;;;15.25;6.05;;;;;;;;;;5081799;28;20032;-56
2024/03/19 00:55:58;;;;;;;6.78;4.22;;;;;;;;;;5088236;28;20028;-55
2024/03/19 00:58:24;;;;;;;9.95;5.40;;;;;;;;;;5090377;28;20035;-56
2024/03/19 01:00:52;;;;;;;3.20;2.35;;;;;;;;;;5082386;28;20040;-56
2024/03/19 01:03:20;;;;;;;6.97;3.42;;;;;;;;;;5092675;28;20024;-56
2024/03/19 01:05:46;;;;;;;6.93;3.20;;;;;;;;;;5093007;28;20032;-56
2024/03/19 01:08:13;;;;;;;4.00;2.83;;;;;;;;;;5092388;28;20035;-56
2024/03/19 01:10:39;;;;;;;4.88;2.80;;;;;;;;;;5092603;28;20027;-57
2024/03/19 01:13:05;;;;;;;5.95;3.13;;;;;;;;;;5083311;28;20460;-56
2024/03/19 01:15:31;;;;;;;3.30;2.45;;;;;;;;;;5082913;28;20542;-56
2024/03/19 01:17:57;;;;;;;3.78;3.17;;;;;;;;;;5092133;28;20032;-56
2024/03/19 01:20:23;;;;;;;5.55;3.35;;;;;;;;;;5092263;28;20046;-55
2024/03/19 01:22:49;;;;;;;8.77;4.60;;;;;;;;;;5089599;28;20062;-56
2024/03/19 01:25:15;;;;;;;5.43;3.33;;;;;;;;;;5086283;28;20074;-56
2024/03/19 01:27:41;;;;;;;5.63;3.78;;;;;;;;;;5088947;28;20086;-53
2024/03/19 01:30:07;;;;;;;4.35;2.88;;;;;;;;;;5092173;28;20027;-53
2024/03/19 01:32:33;;;;;;;7.60;3.28;;;;;;;;;;5090732;28;20082;-53
2024/03/19 01:34:59;;;;;;;5.05;3.17;;;;;;;;;;5092093;28;20042;-55
2024/03/19 01:37:25;;;;;;;5.63;3.30;;;;;;;;;;5092293;28;20028;-54
2024/03/19 01:39:52;;;;;;;8.25;2.90;;;;;;;;;;5086946;28;20107;-53
2024/03/19 01:42:18;;;;;;;3.80;2.78;;;;;;;;;;5079597;28;20032;-52
2024/03/19 01:44:44;;;;;;;5.43;3.17;;;;;;;;;;5092162;28;20051;-51
2024/03/19 01:47:10;;;;;;;5.05;3.15;;;;;;;;;;5091488;28;20036;-53
2024/03/19 01:49:36;;;;;;;5.25;3.35;;;;;;;;;;5092191;28;20074;-51
2024/03/19 01:52:03;;;;;;;4.25;3.45;;;;;;;;;;5092074;28;20032;-53
2024/03/19 01:54:31;;;;;;;9.15;3.35;;;;;;;;;;5091706;28;20016;-53
2024/03/19 01:56:58;;;;;;;5.85;3.70;;;;;;;;;;5094915;28;20028;-52
2024/03/19 01:59:24;;;;;;;5.00;3.20;;;;;;;;;;5086276;28;20045;-54
2024/03/19 02:01:50;;;;;;;6.82;3.47;;;;;;;;;;5084576;28;20028;-53
2024/03/19 02:04:16;;;;;;;5.43;3.22;;;;;;;;;;5075701;28;20032;-51
2024/03/19 02:06:41;;;;;;;8.15;3.50;;;;;;;;;;5080762;28;20020;-53
2024/03/19 02:09:08;;;;;;;4.18;3.38;;;;;;;;;;5096091;28;20468;-51
2024/03/19 02:11:34;;;;;;;6.05;3.47;;;;;;;;;;5096267;28;20497;-52
2024/03/19 02:14:00;;;;;;;5.10;3.30;;;;;;;;;;5095735;28;20110;-52
2024/03/19 02:16:27;;;;;;;7.10;3.97;;;;;;;;;;5095653;28;20073;-54
2024/03/19 02:18:56;;;;;;;5.38;3.42;;;;;;;;;;5085664;28;20058;-53
2024/03/19 02:21:22;;;;;;;5.85;2.95;;;;;;;;;;5081624;28;20074;-54
2024/03/19 02:23:48;;;;;;;4.90;3.70;;;;;;;;;;5086482;28;20032;-54
2024/03/19 02:26:14;;;;;;;6.72;3.58;;;;;;;;;;5099546;28;20020;-53
2024/03/19 02:28:40;;;;;;;5.20;3.17;;;;;;;;;;5115999;28;20035;-53
2024/03/19 02:31:06;;;;;;;5.10;3.63;;;;;;;;;;5094446;28;20029;-54
2024/03/19 02:33:32;;;;;;;6.43;3.60;;;;;;;;;;5101735;28;20012;-54
2024/03/19 02:35:58;;;;;;;6.85;3.42;;;;;;;;;;5094909;28;20035;-53
2024/03/19 02:38:26;;;;;;;5.57;4.00;;;;;;;;;;5095215;28;20465;-56
2024/03/19 02:40:52;;;;;;;4.85;3.25;;;;;;;;;;5096840;28;20500;-56
2024/03/19 02:43:19;;;;;;;8.05;3.97;;;;;;;;;;5092690;28;20086;-57
2024/03/19 02:45:45;;;;;;;7.20;3.92;;;;;;;;;;5093263;28;20507;-56
2024/03/19 02:48:12;;;;;;;7.18;4.72;;;;;;;;;;5088585;28;20020;-53
2024/03/19 02:50:38;;;;;;;5.68;3.67;;;;;;;;;;5082154;28;20024;-54
2024/03/19 02:53:04;;;;;;;8.63;3.83;;;;;;;;;;5079162;28;20028;-54
2024/03/19 02:55:31;;;;;;;7.18;3.88;;;;;;;;;;5093774;28;20025;-52
2024/03/19 02:57:57;;;;;;;6.07;3.58;;;;;;;;;;5095301;28;20503;-52
2024/03/19 03:00:23;;;;;;;5.15;3.35;;;;;;;;;;5095059;28;20019;-54
2024/03/19 03:02:49;;;;;;;6.05;3.25;;;;;;;;;;5083878;28;20473;-54
2024/03/19 03:05:15;;;;;;;7.82;4.28;;;;;;;;;;5074462;28;20698;-55
2024/03/19 03:07:41;;;;;;;10.65;3.80;;;;;;;;;;5073222;28;20468;-52
2024/03/19 03:10:07;;;;;;;5.70;3.63;;;;;;;;;;5074903;28;20032;-53
2024/03/19 03:12:33;;;;;;;6.63;3.80;;;;;;;;;;5089945;28;20119;-53
2024/03/19 03:14:59;;;;;;;5.30;3.60;;;;;;;;;;5074473;28;20032;-53
2024/03/19 03:17:25;;;;;;;11.65;4.47;;;;;;;;;;5090722;28;20514;-54
2024/03/19 03:19:51;;;;;;;5.78;4.13;;;;;;;;;;5094283;28;20028;-52
2024/03/19 03:22:17;;;;;;;6.57;4.28;;;;;;;;;;5094209;28;20056;-50
2024/03/19 03:24:45;;;;;;;7.03;3.97;;;;;;;;;;5094339;28;20477;-52
2024/03/19 03:27:11;;;;;;;8.23;4.65;;;;;;;;;;5096672;28;20028;-53
2024/03/19 03:29:37;;;;;;;7.25;4.47;;;;;;;;;;5094588;28;20031;-53
2024/03/19 03:32:03;;;;;;;9.52;4.68;;;;;;;;;;5092335;28;20032;-54
2024/03/19 03:34:31;;;;;;;8.35;4.75;;;;;;;;;;5093253;28;20030;-53
2024/03/19 03:36:57;;;;;;;8.95;4.35;;;;;;;;;;5078531;28;20028;-54
2024/03/19 03:39:23;;;;;;;7.78;4.47;;;;;;;;;;5089256;28;20031;-52
2024/03/19 03:41:49;;;;;;;7.90;4.25;;;;;;;;;;5106663;28;20387;-53
2024/03/19 03:44:14;;;;;;;7.75;4.32;;;;;;;;;;5094079;28;20027;-53
2024/03/19 03:46:40;;;;;;;8.90;4.30;;;;;;;;;;5093541;28;20031;-58
2024/03/19 03:49:06;;;;;;;7.28;4.40;;;;;;;;;;5094190;28;20024;-55
2024/03/19 03:51:32;;;;;;;7.35;4.53;;;;;;;;;;5093691;28;20035;-57
2024/03/19 03:53:58;;;;;;;7.78;4.20;;;;;;;;;;5093396;28;20039;-57
2024/03/19 03:56:24;;;;;;;8.75;4.40;;;;;;;;;;5094212;28;20032;-58
2024/03/19 03:58:51;;;;;;;9.23;4.88;;;;;;;;;;5083648;28;20412;-48
2024/03/19 04:01:18;;;;;;;7.72;4.80;;;;;;;;;;5092159;28;20047;-50
2024/03/19 04:03:44;;;;;;;8.15;4.28;;;;;;;;;;5093689;28;20027;-52
2024/03/19 04:06:10;;;;;;;9.90;4.90;;;;;;;;;;5094149;28;20020;-49
2024/03/19 04:08:36;;;;;;;6.90;4.55;;;;;;;;;;5093800;28;20077;-52
2024/03/19 04:11:02;;;;;;;12.65;4.80;;;;;;;;;;5089180;28;20430;-53
2024/03/19 04:13:28;;;;;;;7.70;4.97;;;;;;;;;;5076992;28;20068;-52
2024/03/19 04:15:56;;;;;;;10.45;5.18;;;;;;;;;;5075079;28;20024;-50
2024/03/19 04:18:22;;;;;;;10.63;5.90;;;;;;;;;;5071488;28;20113;-51
2024/03/19 04:20:51;;;;;;;11.23;5.80;;;;;;;;;;5087030;28;20088;-49
2024/03/19 04:23:17;;;;;;;9.30;5.00;;;;;;;;;;5093085;28;20483;-52
2024/03/19 04:25:43;;;;;;;10.27;5.65;;;;;;;;;;5091785;28;20095;-52
2024/03/19 04:28:09;;;;;;;10.50;5.38;;;;;;;;;;5095925;28;20498;-51
2024/03/19 04:30:35;;;;;;;9.35;5.47;;;;;;;;;;5099646;28;20115;-51
2024/03/19 04:33:01;;;;;;;9.38;5.35;;;;;;;;;;5084366;28;20394;-48
2024/03/19 04:35:27;;;;;;;9.90;5.60;;;;;;;;;;5093339;28;20103;-52
2024/03/19 04:37:53;;;;;;;8.63;5.45;;;;;;;;;;5092935;28;20459;-52
2024/03/19 04:40:19;;;;;;;8.98;5.20;;;;;;;;;;5083044;28;20484;-51
2024/03/19 04:42:45;;;;;;;8.95;4.93;;;;;;;;;;5085914;28;20063;-50
2024/03/19 04:45:11;;;;;;;10.60;5.75;;;;;;;;;;5092860;28;20028;-49
2024/03/19 04:47:37;;;;;;;11.13;5.65;;;;;;;;;;5090036;28;20531;-51
2024/03/19 04:50:03;;;;;;;10.57;5.25;;;;;;;;;;5092810;28;20020;-49
2024/03/19 04:52:29;;;;;;;8.68;5.40;;;;;;;;;;5092768;28;20035;-52
2024/03/19 04:54:55;;;;;;;9.35;6.00;;;;;;;;;;5093105;28;20024;-52
2024/03/19 04:57:21;;;;;;;15.88;5.65;;;;;;;;;;5093001;28;20812;-51
2024/03/19 04:59:47;;;;;;;8.48;5.15;;;;;;;;;;5092420;28;20039;-54
2024/03/19 05:02:13;;;;;;;9.52;5.70;;;;;;;;;;5088633;28;20028;-54
2024/03/19 05:04:39;;;;;;;12.75;5.90;;;;;;;;;;5079219;28;20033;-52
2024/03/19 05:07:05;;;;;;;9.45;5.65;;;;;;;;;;5090771;28;20494;-54
2024/03/19 05:09:30;;;;;;;11.77;5.85;;;;;;;;;;5091408;28;20364;-52
2024/03/19 05:11:56;;;;;;;8.30;5.10;;;;;;;;;;5089983;28;20035;-54
2024/03/19 05:14:22;;;;;;;13.35;5.55;;;;;;;;;;5090286;28;20031;-54
2024/03/19 05:16:48;;;;;;;8.95;5.40;;;;;;;;;;5088682;28;20510;-52
2024/03/19 05:19:14;;;;;;;11.98;6.45;;;;;;;;;;5086070;28;20487;-52
2024/03/19 05:21:40;;;;;;;9.95;4.25;;;;;;;;;;5089002;28;20052;-52
2024/03/19 05:24:06;;;;;;;12.00;6.15;;;;;;;;;;5089807;28;20483;-52
2024/03/19 05:26:33;;;;;;;8.15;5.20;;;;;;;;;;5091687;28;20540;-53
2024/03/19 05:28:59;;;;;;;14.82;8.13;;;;;;;;;;5080923;28;20032;-54
2024/03/19 05:31:26;;;;;;;19.38;10.07;;;;;;;;;;5084321;28;20024;-53
2024/03/19 05:33:55;;;;;;;27.63;14.52;;;;;;;;;;5084136;28;20438;-53
2024/03/19 05:36:21;;;;;;;24.65;11.98;;;;;;;;;;5091132;28;20035;-51
2024/03/19 05:38:47;;;;;;;29.80;13.23;;;;;;;;;;5089012;28;20051;-54
2024/03/19 05:41:17;;;;;;;23.10;9.75;;;;;;;;;;5084937;28;20114;-52
2024/03/19 05:43:43;;;;;;;18.00;8.85;;;;;;;;;;5088958;28;20127;-54
2024/03/19 05:46:10;;;;;;;10.68;6.68;;;;;;;;;;5084077;28;20032;-54
2024/03/19 05:48:37;;;;;;;12.50;6.32;;;;;;;;;;5089152;28;20036;-53
2024/03/19 05:51:03;;;;;;;17.83;7.85;;;;;;;;;;5088050;28;20395;-54
2024/03/19 05:53:29;;;;;;;12.07;6.30;;;;;;;;;;5086696;28;20035;-53
2024/03/19 05:55:56;;;;;;;19.05;7.68;;;;;;;;;;5090415;28;20340;-52
2024/03/19 05:58:22;;;;;;;27.88;15.75;;;;;;;;;;5090209;28;20028;-53
2024/03/19 06:00:48;;;;;;;17.63;10.45;;;;;;;;;;5090733;28;20077;-49
2024/03/19 06:03:15;;;;;;;17.90;9.70;;;;;;;;;;5088826;28;20027;-52
2024/03/19 06:05:41;;;;;;;21.17;9.85;;;;;;;;;;5088344;28;20419;-53
2024/03/19 06:08:07;;;;;;;21.60;9.05;;;;;;;;;;5090394;28;20036;-55
2024/03/19 06:10:33;;;;;;;24.30;9.95;;;;;;;;;;5087465;28;20035;-55
2024/03/19 06:12:59;;;;;;;62.38;22.10;;;;;;;;;;5088672;28;20035;-55
2024/03/19 06:15:25;;;;;;;42.42;14.98;;;;;;;;;;5090048;28;20024;-52
2024/03/19 06:17:51;;;;;;;62.15;21.55;;;;;;;;;;5084779;28;20036;-53
2024/03/19 06:20:18;;;;;;;40.42;16.60;;;;;;;;;;5087752;28;20036;-54
2024/03/19 06:22:44;;;;;;;23.95;9.55;;;;;;;;;;5090408;28;20020;-52
2024/03/19 06:25:10;;;;;;;19.95;8.18;;;;;;;;;;5090617;28;20109;-52
2024/03/19 06:27:37;;;;;;;30.83;12.40;;;;;;;;;;5085117;28;20391;-53
2024/03/19 06:30:04;;;;;;;21.48;11.07;;;;;;;;;;5088153;28;20107;-53
2024/03/19 06:32:30;;;;;;;29.42;14.00;;;;;;;;;;5088744;28;20116;-53
2024/03/19 06:34:56;;;;;;;37.38;15.20;;;;;;;;;;5079741;28;20032;-54
2024/03/19 06:37:22;;;;;;;22.00;12.48;;;;;;;;;;5085925;28;20035;-53
2024/03/19 06:39:48;;;;;;;28.08;16.27;;;;;;;;;;5083960;28;20132;-53
2024/03/19 06:42:14;;;;;;;21.80;11.35;;;;;;;;;;5090195;28;20039;-54
2024/03/19 06:44:41;;;;;;;33.35;13.68;;;;;;;;;;5090182;28;20074;-53
2024/03/19 06:47:07;;;;;;;35.70;13.68;;;;;;;;;;5086107;28;20031;-54
2024/03/19 06:49:33;;;;;;;19.40;10.00;;;;;;;;;;5085478;28;20067;-54
2024/03/19 06:51:59;;;;;;;22.88;9.88;;;;;;;;;;5092982;28;20076;-54
2024/03/19 06:54:25;;;;;;;22.48;9.45;;;;;;;;;;5091455;28;20031;-54
2024/03/19 06:56:52;;;;;;;19.67;8.60;;;;;;;;;;5089790;28;20048;-52
2024/03/19 06:59:19;;;;;;;32.00;13.07;;;;;;;;;;5089812;28;20034;-54
2024/03/19 07:01:45;;;;;;;28.05;11.52;;;;;;;;;;5093750;28;20050;-54
2024/03/19 07:04:12;;;;;;;24.15;10.23;;;;;;;;;;5088093;28;20031;-55
2024/03/19 07:06:41;;;;;;;33.08;12.85;;;;;;;;;;5089607;28;20035;-54
2024/03/19 07:09:09;;;;;;;25.27;10.10;;;;;;;;;;5084392;28;20020;-55
2024/03/19 07:11:35;;;;;;;24.05;9.88;;;;;;;;;;5090833;28;20472;-52
2024/03/19 07:14:01;;;;;;;45.45;15.00;;;;;;;;;;5081782;28;20048;-54
2024/03/19 07:16:27;;;;;;;46.10;15.80;;;;;;;;;;5082778;28;20024;-54
2024/03/19 07:18:53;;;;;;;27.65;10.90;;;;;;;;;;5090947;28;20077;-57
2024/03/19 07:21:19;;;;;;;35.22;15.07;;;;;;;;;;5093431;28;20388;-58
2024/03/19 07:23:45;;;;;;;30.70;10.45;;;;;;;;;;5093432;28;20426;-57
2024/03/19 07:26:11;;;;;;;20.33;9.80;;;;;;;;;;5100322;28;20399;-58
2024/03/19 07:28:38;;;;;;;25.88;11.23;;;;;;;;;;5090629;28;20027;-52
2024/03/19 07:31:04;;;;;;;35.95;15.60;;;;;;;;;;5091953;28;20417;-54
2024/03/19 07:33:30;;;;;;;26.90;11.32;;;;;;;;;;5093172;28;20491;-54
2024/03/19 07:35:56;;;;;;;27.52;12.35;;;;;;;;;;5089393;28;20028;-52
2024/03/19 07:38:22;;;;;;;22.40;10.55;;;;;;;;;;5093453;28;20042;-52
2024/03/19 07:40:49;;;;;;;26.30;10.63;;;;;;;;;;5093373;28;20024;-54
2024/03/19 07:43:18;;;;;;;26.08;11.93;;;;;;;;;;5092062;28;20024;-52
2024/03/19 07:45:44;;;;;;;22.42;10.85;;;;;;;;;;5092030;28;20035;-54
2024/03/19 07:48:12;;;;;;;24.58;11.20;;;;;;;;;;5085700;28;20029;-53
2024/03/19 07:50:38;;;;;;;29.83;12.30;;;;;;;;;;5085010;28;20060;-53
2024/03/19 07:53:04;;;;;;;27.10;11.52;;;;;;;;;;5092772;28;20582;-54
2024/03/19 07:55:30;;;;;;;25.95;11.48;;;;;;;;;;5092032;28;20017;-52
2024/03/19 07:57:56;;;;;;;22.30;10.60;;;;;;;;;;5093315;28;20043;-54
2024/03/19 08:00:22;;;;;;;22.38;10.88;;;;;;;;;;5091356;28;20028;-53
2024/03/19 08:02:48;;;;;;;20.75;11.20;;;;;;;;;;5086468;28;20028;-54
2024/03/19 08:05:14;;;;;;;21.75;10.95;;;;;;;;;;5086033;28;20772;-53
2024/03/19 08:07:41;;;;;;;24.73;11.15;;;;;;;;;;5091642;28;20020;-54
2024/03/19 08:10:07;;;;;;;21.48;11.13;;;;;;;;;;5091253;28;20165;-55
2024/03/19 08:12:34;;;;;;;22.85;10.48;;;;;;;;;;5092664;28;20059;-54
2024/03/19 08:15:03;;;;;;;23.92;10.50;;;;;;;;;;5090710;28;20388;-53
2024/03/19 08:17:29;;;;;;;22.60;10.10;;;;;;;;;;5084651;28;20020;-54
2024/03/19 08:19:56;;;;;;;21.88;10.15;;;;;;;;;;5090982;28;20032;-54
2024/03/19 08:22:22;;;;;;;22.30;9.90;;;;;;;;;;5092273;28;20444;-54
2024/03/19 08:24:49;;;;;;;21.52;9.98;;;;;;;;;;5089380;28;20165;-55
2024/03/19 08:27:15;;;;;;;19.00;10.18;;;;;;;;;;5092394;28;20492;-54
2024/03/19 08:29:41;;;;;;;19.63;10.52;;;;;;;;;;5088597;28;20028;-54
2024/03/19 08:32:07;;;;;;;17.83;10.50;;;;;;;;;;5091738;28;20028;-53
2024/03/19 08:34:33;;;;;;;20.15;10.63;;;;;;;;;;5091732;28;20035;-54
2024/03/19 08:36:59;;;;;;;25.10;9.95;;;;;;;;;;5092474;28;20429;-56
2024/03/19 08:39:25;;;;;;;17.80;9.90;;;;;;;;;;5087547;28;20024;-58
2024/03/19 08:41:53;;;;;;;18.70;10.77;;;;;;;;;;5088210;28;20100;-58
2024/03/19 08:44:19;;;;;;;17.60;10.25;;;;;;;;;;5092811;28;20028;-57
2024/03/19 08:46:45;;;;;;;21.75;10.38;;;;;;;;;;5092000;28;20024;-58
2024/03/19 08:49:11;;;;;;;17.50;9.10;;;;;;;;;;5092075;28;20128;-58
2024/03/19 08:51:37;;;;;;;18.65;10.25;;;;;;;;;;5091686;28;20487;-58
2024/03/19 08:54:04;;;;;;;19.83;10.93;;;;;;;;;;5091842;28;20151;-59
2024/03/19 08:56:32;;;;;;;20.95;9.48;;;;;;;;;;5092125;28;20032;-59
2024/03/19 08:58:58;;;;;;;19.13;10.82;;;;;;;;;;5082634;28;20107;-58
2024/03/19 09:01:24;;;;;;;19.95;9.07;;;;;;;;;;5080205;28;20040;-58
2024/03/19 09:03:51;;;;;;;17.23;9.25;;;;;;;;;;5091451;28;20032;-58
2024/03/19 09:06:18;;;;;;;17.30;9.30;;;;;;;;;;5090469;28;20101;-58
2024/03/19 09:08:43;;;;;;;16.00;8.43;;;;;;;;;;5084975;28;20031;-58
2024/03/19 09:11:09;;;;;;;19.90;9.27;;;;;;;;;;5089429;28;20012;-59
2024/03/19 09:13:35;;;;;;;13.20;7.75;;;;;;;;;;5089376;28;20024;-58
2024/03/19 09:16:01;;;;;;;18.63;9.38;;;;;;;;;;5091496;28;20552;-58
2024/03/19 09:18:27;;;;;;;16.80;8.35;;;;;;;;;;5091687;28;20039;-59
2024/03/19 09:20:53;;;;;;;17.77;8.95;;;;;;;;;;5090174;28;20048;-59
2024/03/19 09:23:19;;;;;;;13.10;7.97;;;;;;;;;;5091441;28;20383;-59
2024/03/19 09:25:46;;;;;;;16.50;8.18;;;;;;;;;;5089223;28;20028;-59
2024/03/19 09:28:12;;;;;;;13.88;8.30;;;;;;;;;;5080390;28;20020;-59
2024/03/19 09:30:38;;;;;;;12.80;7.32;;;;;;;;;;5090413;28;20031;-59
2024/03/19 09:33:05;;;;;;;13.50;8.07;;;;;;;;;;5081906;28;20024;-59
2024/03/19 09:35:32;;;;;;;11.48;7.00;;;;;;;;;;5089035;28;20039;-59
2024/03/19 09:37:58;;;;;;;11.70;7.65;;;;;;;;;;5091572;28;20043;-54
2024/03/19 09:40:24;;;;;;;14.00;7.68;;;;;;;;;;5087796;28;20028;-54
2024/03/19 09:42:50;;;;;;;10.70;6.72;;;;;;;;;;5079079;28;20031;-54
2024/03/19 09:45:25;;;;;;;9.57;7.03;;;;;;;;;;5088388;28;20038;-54
2024/03/19 09:47:51;;;;;;;12.13;6.75;;;;;;;;;;5091277;28;20032;-59
2024/03/19 09:50:18;;;;;;;15.98;8.43;;;;;;;;;;5088527;28;20085;-59
2024/03/19 09:52:44;;;;;;;16.48;7.60;;;;;;;;;;5082830;28;20451;-59
2024/03/19 09:55:15;;;;;;;14.65;8.27;;;;;;;;;;5091287;28;20103;-59
2024/03/19 09:57:46;;;;;;;11.43;7.32;;;;;;;;;;5083184;28;20036;-59
2024/03/19 10:00:33;;;;;;;12.90;7.60;;;;;;;;;;5089574;28;20039;-59
2024/03/19 10:03:00;;;;;;;16.30;7.57;;;;;;;;;;5086202;28;20085;-59
2024/03/19 10:05:26;;;;;;;15.32;7.65;;;;;;;;;;5089606;28;20039;-59
2024/03/19 10:07:53;;;;;;;11.70;6.53;;;;;;;;;;5081448;28;20112;-58
2024/03/19 10:10:19;;;;;;;11.93;7.38;;;;;;;;;;5090188;28;20103;-59
2024/03/19 10:12:46;;;;;;;14.40;7.38;;;;;;;;;;5090743;28;20114;-59
2024/03/19 10:15:21;;;;;;;13.85;7.28;;;;;;;;;;5092183;28;20027;-59
2024/03/19 10:17:48;;;;;;;12.98;7.28;;;;;;;;;;5088073;28;20102;-59
2024/03/19 10:20:17;;;;;;;11.80;7.72;;;;;;;;;;5094915;28;20028;-59
2024/03/19 10:22:45;;;;;;;11.25;7.65;;;;;;;;;;5094070;28;20036;-59
2024/03/19 10:25:12;;;;;;;11.73;6.88;;;;;;;;;;5092564;28;20510;-59
2024/03/19 10:27:40;;;;;;;13.60;6.88;;;;;;;;;;5094307;28;20480;-58
2024/03/19 10:30:08;;;;;;;12.15;7.05;;;;;;;;;;5094864;28;20017;-59
2024/03/19 10:32:35;;;;;;;23.38;6.82;;;;;;;;;;5091937;28;20056;-59
2024/03/19 10:35:01;;;;;;;11.35;6.10;;;;;;;;;;5094619;28;20073;-59
2024/03/19 10:37:27;;;;;;;9.57;5.93;;;;;;;;;;5090842;28;20035;-59
2024/03/19 10:39:53;;;;;;;11.43;6.30;;;;;;;;;;5094948;28;20024;-59
2024/03/19 10:42:19;;;;;;;14.88;7.07;;;;;;;;;;5094050;28;20026;-59
2024/03/19 10:44:45;;;;;;;10.93;6.07;;;;;;;;;;5094762;28;20024;-60
2024/03/19 10:47:14;;;;;;;8.85;5.55;;;;;;;;;;5093701;28;20069;-58
2024/03/19 10:49:39;;;;;;;12.13;5.70;;;;;;;;;;5094395;28;20021;-58
2024/03/19 10:52:20;;;;;;;7.90;5.13;;;;;;;;;;5087745;28;21127;-58
2024/03/19 10:54:47;;;;;;;12.32;6.20;;;;;;;;;;5094607;28;20518;-56
2024/03/19 10:57:15;;;;;;;7.57;5.07;;;;;;;;;;5092209;28;20023;-60
2024/03/19 10:59:42;;;;;;;9.07;5.93;;;;;;;;;;5088105;28;20024;-59
2024/03/19 11:02:10;;;;;;;8.45;5.18;;;;;;;;;;5086880;28;20383;-59
2024/03/19 11:04:36;;;;;;;11.25;5.82;;;;;;;;;;5094037;28;20024;-60
2024/03/19 11:07:03;;;;;;;7.72;5.20;;;;;;;;;;5093691;28;20032;-60
2024/03/19 11:09:29;;;;;;;11.88;5.47;;;;;;;;;;5083185;28;20116;-60
2024/03/19 11:12:00;;;;;;;7.38;5.15;;;;;;;;;;5093511;28;20024;-59
2024/03/19 11:14:28;;;;;;;9.18;5.35;;;;;;;;;;5093621;28;20538;-57
2024/03/19 11:16:54;;;;;;;7.80;4.70;;;;;;;;;;5093942;28;20387;-60
2024/03/19 11:19:24;;;;;;;8.52;5.50;;;;;;;;;;5093828;28;20032;-60
2024/03/19 11:21:51;;;;;;;20.50;5.78;;;;;;;;;;5092620;28;20055;-60
2024/03/19 11:24:35;;;;;;;9.98;5.07;;;;;;;;;;5093380;28;20031;-60
2024/03/19 11:27:01;;;;;;;184.95;70.38;;;;;;;;;;5080507;28;20023;-59
2024/03/19 11:29:28;;;;;;;13.50;7.72;;;;;;;;;;5090753;28;20032;-60
2024/03/19 11:31:58;;;;;;;8.30;5.53;;;;;;;;;;5093363;28;20020;-59
2024/03/19 11:34:24;;;;;;;8.30;5.85;;;;;;;;;;5093409;28;20024;-60
2024/03/19 11:36:50;;;;;;;16.40;10.50;;;;;;;;;;5087660;28;20031;-59
2024/03/19 11:39:16;;;;;;;27.10;16.20;;;;;;;;;;5089450;28;20494;-59
2024/03/19 11:41:43;;;;;;;9.93;6.53;;;;;;;;;;5094447;28;20043;-59
2024/03/19 11:44:15;;;;;;;10.15;6.60;;;;;;;;;;5090518;28;20032;-58
2024/03/19 11:46:48;;;;;;;34.10;17.80;;;;;;;;;;5084489;28;20043;-59
2024/03/19 11:49:25;;;;;;;24.50;15.13;;;;;;;;;;5086568;28;20039;-62
2024/03/19 11:52:04;;;;;;;17.65;10.98;;;;;;;;;;5088739;28;20025;-61
2024/03/19 11:54:31;;;;;;;11.80;8.40;;;;;;;;;;5093138;28;20024;-59
2024/03/19 11:56:57;;;;;;;9.23;5.53;;;;;;;;;;5093062;28;20085;-58
2024/03/19 11:59:27;;;;;;;13.57;8.45;;;;;;;;;;5092552;28;20546;-58
2024/03/19 12:01:56;;;;;;;49.80;28.83;;;;;;;;;;5093151;28;20035;-58
2024/03/19 12:04:22;;;;;;;20.70;12.35;;;;;;;;;;5092971;28;20551;-58
2024/03/19 12:06:49;;;;;;;18.25;9.15;;;;;;;;;;5092055;28;20058;-58
2024/03/19 12:09:16;;;;;;;19.42;11.70;;;;;;;;;;5093385;28;20476;-56
2024/03/19 12:11:42;;;;;;;11.10;6.47;;;;;;;;;;5092033;28;20460;-56
2024/03/19 12:14:12;;;;;;;7.55;5.53;;;;;;;;;;5084872;28;20039;-56
2024/03/19 12:16:38;;;;;;;7.07;5.07;;;;;;;;;;5085308;28;20054;-56
2024/03/19 12:19:04;;;;;;;13.10;6.45;;;;;;;;;;5091807;28;20059;-56
2024/03/19 12:21:30;;;;;;;18.13;11.27;;;;;;;;;;5092476;28;20488;-56
2024/03/19 12:23:56;;;;;;;7.75;4.85;;;;;;;;;;5091360;28;20437;-56
2024/03/19 12:26:22;;;;;;;6.18;3.90;;;;;;;;;;5092938;28;20035;-56
2024/03/19 12:28:49;;;;;;;5.75;3.72;;;;;;;;;;5085676;28;20039;-57
2024/03/19 12:31:22;;;;;;;5.43;3.95;;;;;;;;;;5091199;28;20552;-57
2024/03/19 12:33:53;;;;;;;8.80;4.70;;;;;;;;;;5090668;28;20065;-57
2024/03/19 12:36:19;;;;;;;12.52;6.03;;;;;;;;;;5088688;28;20081;-55
2024/03/19 12:38:45;;;;;;;8.23;5.70;;;;;;;;;;5081237;28;20032;-55
2024/03/19 12:41:11;;;;;;;25.33;16.10;;;;;;;;;;5092070;28;20035;-55
2024/03/19 12:43:37;;;;;;;15.80;11.18;;;;;;;;;;5092004;28;20636;-55
2024/03/19 12:46:06;;;;;;;6.15;3.80;;;;;;;;;;5086644;28;20024;-55
2024/03/19 12:48:35;;;;;;;9.65;5.85;;;;;;;;;;5078707;28;20025;-55
2024/03/19 12:51:01;;;;;;;6.95;4.60;;;;;;;;;;5092023;28;20028;-54
2024/03/19 12:53:27;;;;;;;6.88;4.30;;;;;;;;;;5090986;28;20119;-55
2024/03/19 12:55:53;;;;;;;7.32;3.78;;;;;;;;;;5092076;28;20027;-55
2024/03/19 12:58:19;;;;;;;9.77;4.38;;;;;;;;;;5091342;28;20548;-55
2024/03/19 13:00:46;;;;;;;5.80;3.30;;;;;;;;;;5091934;28;20028;-56
2024/03/19 13:03:12;;;;;;;6.75;3.40;;;;;;;;;;5080366;28;20102;-55
2024/03/19 13:05:38;;;;;;;4.57;3.42;;;;;;;;;;5091730;28;20757;-55
2024/03/19 13:08:04;;;;;;;7.22;3.90;;;;;;;;;;5084694;28;20040;-55
2024/03/19 13:10:32;;;;;;;5.82;4.00;;;;;;;;;;5091894;28;20149;-55
2024/03/19 13:12:58;;;;;;;7.72;5.78;;;;;;;;;;5090584;28;20390;-54
2024/03/19 13:15:23;;;;;;;4.85;3.67;;;;;;;;;;5090792;28;20028;-54
2024/03/19 13:17:49;;;;;;;6.72;3.55;;;;;;;;;;5091119;28;20024;-54
2024/03/19 13:20:16;;;;;;;9.85;6.97;;;;;;;;;;5091377;28;20039;-55
2024/03/19 13:22:42;;;;;;;6.28;4.60;;;;;;;;;;5090016;28;20112;-56
2024/03/19 13:25:08;;;;;;;7.05;4.13;;;;;;;;;;5091660;28;20574;-55
2024/03/19 13:27:34;;;;;;;7.18;4.50;;;;;;;;;;5091308;28;20028;-54
2024/03/19 13:30:01;;;;;;;6.93;4.13;;;;;;;;;;5088453;28;20017;-56
2024/03/19 13:32:28;;;;;;;6.80;4.25;;;;;;;;;;5086681;28;20031;-55
2024/03/19 13:34:54;;;;;;;10.43;4.10;;;;;;;;;;5084515;28;20054;-54
2024/03/19 13:37:20;;;;;;;6.80;4.05;;;;;;;;;;5089798;28;20021;-55
2024/03/19 13:39:46;;;;;;;7.35;4.50;;;;;;;;;;5084713;28;20444;-55
2024/03/19 13:42:12;;;;;;;6.10;4.07;;;;;;;;;;5084581;28;20050;-55
2024/03/19 13:44:38;;;;;;;7.20;3.80;;;;;;;;;;5081086;28;20055;-55
2024/03/19 13:47:04;;;;;;;7.25;4.50;;;;;;;;;;5085230;28;20460;-55
2024/03/19 13:49:30;;;;;;;10.23;4.20;;;;;;;;;;5086425;28;20491;-55
2024/03/19 13:51:57;;;;;;;6.85;4.25;;;;;;;;;;5086070;28;20082;-55
2024/03/19 13:54:23;;;;;;;6.85;3.88;;;;;;;;;;5099035;28;20524;-57
2024/03/19 13:56:50;;;;;;;8.80;4.50;;;;;;;;;;5084277;28;20547;-57
2024/03/19 13:59:18;;;;;;;7.70;4.45;;;;;;;;;;5090193;28;20503;-58
2024/03/19 14:01:44;;;;;;;7.45;4.65;;;;;;;;;;5079774;28;20532;-57
2024/03/19 14:04:11;;;;;;;8.15;4.45;;;;;;;;;;5085091;28;20090;-57
2024/03/19 14:06:37;;;;;;;5.10;3.55;;;;;;;;;;5084849;28;20026;-54
2024/03/19 14:09:03;;;;;;;7.20;4.20;;;;;;;;;;5085045;28;20032;-57
2024/03/19 14:11:29;;;;;;;8.00;4.85;;;;;;;;;;5082544;28;20028;-57
2024/03/19 14:13:55;;;;;;;9.32;4.72;;;;;;;;;;5081998;28;20209;-57
2024/03/19 14:16:21;;;;;;;8.30;4.38;;;;;;;;;;5090433;28;20020;-56
2024/03/19 14:18:47;;;;;;;7.03;4.15;;;;;;;;;;5085885;28;20032;-55
2024/03/19 14:21:13;;;;;;;7.68;4.38;;;;;;;;;;5090582;28;20081;-56
2024/03/19 14:23:39;;;;;;;6.20;4.25;;;;;;;;;;5084343;28;20395;-55
2024/03/19 14:26:05;;;;;;;7.35;4.20;;;;;;;;;;5081726;28;20038;-52
2024/03/19 14:28:31;;;;;;;7.75;4.53;;;;;;;;;;5083454;28;20454;-54
2024/03/19 14:31:01;;;;;;;6.20;4.00;;;;;;;;;;5090075;28;20020;-53